createdAt,value
2018-11-20T00:01:38.460Z,36.70
2018-11-20T00:04:39.117Z,34.67
2018-11-20T00:07:39.770Z,33.07
2018-11-20T00:10:32.351Z,35.57
2018-11-20T00:13:24.709Z,34.40
2018-11-20T00:16:24.099Z,33.87
2018-11-20T00:19:23.798Z,33.37
2018-11-20T00:22:25.856Z,32.50
2018-11-20T00:25:31.637Z,32.80
2018-11-20T00:28:36.873Z,31.30
2018-11-20T00:31:36.262Z,32.67
2018-11-20T00:34:36.889Z,32.07
2018-11-20T00:37:37.245Z,30.90
2018-11-20T00:40:36.678Z,31.67
2018-11-20T00:43:36.084Z,34.00
2018-11-20T00:46:35.451Z,33.37
2018-11-20T00:49:35.079Z,33.53
2018-11-20T00:52:40.268Z,30.93
2018-11-20T00:55:39.814Z,32.33
2018-11-20T00:58:30.002Z,31.23
2018-11-20T01:01:29.819Z,29.77
2018-11-20T01:04:29.543Z,30.80
2018-11-20T01:07:28.900Z,30.63
2018-11-20T01:10:24.234Z,29.40
2018-11-20T01:13:23.900Z,29.53
2018-11-20T01:16:23.404Z,30.70
2018-11-20T01:19:23.083Z,30.50
2018-11-20T01:22:23.823Z,31.47
2018-11-20T01:25:24.134Z,28.57
2018-11-20T01:28:26.267Z,29.73
2018-11-20T01:31:25.391Z,29.57
2018-11-20T01:34:25.655Z,29.77
2018-11-20T01:37:26.034Z,30.23
2018-11-20T01:40:25.949Z,31.60
2018-11-20T01:43:18.955Z,29.53
2018-11-20T01:46:18.057Z,29.87
2018-11-20T01:49:17.566Z,29.27
2018-11-20T01:52:04.547Z,27.60
2018-11-20T01:55:04.196Z,30.77
2018-11-20T01:58:04.856Z,32.63
2018-11-20T02:01:04.124Z,27.93
2018-11-20T02:04:04.830Z,29.10
2018-11-20T02:06:55.984Z,31.30
2018-11-20T02:09:55.693Z,29.30
2018-11-20T02:12:54.984Z,28.90
2018-11-20T02:15:54.259Z,31.17
2018-11-20T02:18:54.819Z,29.60
2018-11-20T02:21:54.074Z,31.50
2018-11-20T02:24:59.383Z,32.63
2018-11-20T02:27:58.963Z,28.73
2018-11-20T02:30:58.607Z,29.43
2018-11-20T02:33:55.244Z,31.63
2018-11-20T02:36:54.276Z,28.73
2018-11-20T02:39:53.927Z,30.83
2018-11-20T02:42:54.296Z,31.17
2018-11-20T02:45:56.398Z,30.80
2018-11-20T02:48:58.839Z,28.93
2018-11-20T02:51:59.532Z,31.13
2018-11-20T02:54:58.460Z,30.30
2018-11-20T02:57:57.386Z,28.30
2018-11-20T03:00:50.637Z,26.97
2018-11-20T03:03:52.891Z,28.80
2018-11-20T03:06:57.955Z,28.93
2018-11-20T03:09:57.488Z,27.27
2018-11-20T03:13:03.745Z,28.40
2018-11-20T03:19:06.630Z,29.87
2018-11-20T03:22:09.406Z,28.13
2018-11-20T03:25:09.346Z,29.77
2018-11-20T03:28:08.956Z,28.33
2018-11-20T03:31:03.210Z,28.97
2018-11-20T03:34:05.714Z,30.97
2018-11-20T03:37:08.679Z,28.87
2018-11-20T03:40:08.419Z,27.57
2018-11-20T03:43:05.129Z,30.20
2018-11-20T03:46:05.830Z,32.23
2018-11-20T03:49:05.719Z,34.10
2018-11-20T03:51:55.419Z,30.47
2018-11-20T03:54:55.003Z,29.53
2018-11-20T03:57:57.277Z,30.43
2018-11-20T04:00:57.096Z,29.30
2018-11-20T04:03:57.651Z,32.33
2018-11-20T04:06:55.564Z,31.87
2018-11-20T04:09:55.897Z,32.97
2018-11-20T04:12:49.979Z,31.40
2018-11-20T04:15:55.527Z,34.20
2018-11-20T04:18:55.303Z,34.67
2018-11-20T04:21:54.782Z,32.30
2018-11-20T04:24:54.086Z,31.10
2018-11-20T04:27:56.248Z,33.63
2018-11-20T04:31:01.831Z,32.37
2018-11-20T04:34:04.323Z,31.03
2018-11-20T04:37:03.770Z,33.73
2018-11-20T04:40:03.107Z,30.87
2018-11-20T04:43:03.949Z,31.40
2018-11-20T04:46:04.420Z,35.03
2018-11-20T04:49:04.984Z,31.70
2018-11-20T04:52:05.687Z,33.70
2018-11-20T04:55:02.643Z,35.27
2018-11-20T04:58:02.489Z,33.47
2018-11-20T05:01:02.993Z,34.53
2018-11-20T05:04:01.999Z,33.77
2018-11-20T05:07:07.048Z,37.10
2018-11-20T05:10:09.872Z,38.10
2018-11-20T05:13:10.824Z,36.77
2018-11-20T05:16:11.774Z,35.80
2018-11-20T05:19:11.282Z,34.60
2018-11-20T05:22:10.743Z,33.30
2018-11-20T05:25:10.661Z,36.37
2018-11-20T05:28:10.416Z,37.37
2018-11-20T05:31:11.426Z,32.37
2018-11-20T05:34:10.519Z,34.57
2018-11-20T05:37:10.166Z,34.83
2018-11-20T05:40:12.083Z,32.47
2018-11-20T05:43:11.021Z,37.07
2018-11-20T05:46:10.926Z,34.33
2018-11-20T05:49:10.912Z,34.23
2018-11-20T05:52:09.984Z,36.13
2018-11-20T05:55:00.482Z,35.60
2018-11-20T05:58:01.567Z,37.53
2018-11-20T06:01:00.427Z,34.37
2018-11-20T06:03:59.677Z,34.60
2018-11-20T06:06:59.145Z,37.97
2018-11-20T06:09:59.099Z,34.30
2018-11-20T06:12:58.875Z,35.07
2018-11-20T06:15:59.911Z,37.20
2018-11-20T06:19:02.323Z,35.47
2018-11-20T06:22:02.830Z,39.50
2018-11-20T06:25:02.481Z,37.47
2018-11-20T06:28:02.196Z,41.70
2018-11-20T06:31:03.027Z,38.23
2018-11-20T06:34:00.728Z,38.63
2018-11-20T06:37:00.005Z,43.47
2018-11-20T06:40:04.929Z,43.47
2018-11-20T06:43:04.491Z,42.07
2018-11-20T06:45:58.733Z,46.30
2018-11-20T06:49:01.062Z,45.17
2018-11-20T06:52:02.321Z,44.93
2018-11-20T06:54:52.889Z,43.00
2018-11-20T06:57:51.128Z,48.83
2018-11-20T07:00:50.545Z,49.90
2018-11-20T07:03:49.845Z,53.90
2018-11-20T07:06:55.190Z,45.83
2018-11-20T07:09:57.620Z,48.43
2018-11-20T07:12:57.041Z,52.47
2018-11-20T07:15:54.838Z,60.47
2018-11-20T07:18:57.087Z,57.00
2018-11-20T07:21:57.879Z,61.90
2018-11-20T07:24:57.551Z,47.07
2018-11-20T07:27:57.957Z,46.20
2018-11-20T07:30:56.814Z,45.03
2018-11-20T07:33:56.085Z,41.67
2018-11-20T07:36:55.882Z,41.50
2018-11-20T07:39:55.075Z,39.03
2018-11-20T07:42:54.912Z,42.10
2018-11-20T07:45:57.568Z,40.30
2018-11-20T07:48:59.777Z,43.50
2018-11-20T07:52:00.612Z,41.20
2018-11-20T07:55:00.008Z,44.53
2018-11-20T07:58:00.448Z,44.97
2018-11-20T08:01:01.259Z,43.90
2018-11-20T08:04:06.870Z,39.57
2018-11-20T08:07:06.750Z,39.33
2018-11-20T08:10:01.854Z,40.73
2018-11-20T08:13:01.184Z,39.47
2018-11-20T08:16:03.961Z,39.43
2018-11-20T08:19:03.791Z,36.60
2018-11-20T08:24:53.401Z,37.77
2018-11-20T08:27:52.567Z,41.07
2018-11-20T08:30:52.367Z,39.77
2018-11-20T08:33:52.139Z,40.40
2018-11-20T08:36:55.090Z,39.30
2018-11-20T08:39:55.558Z,37.90
2018-11-20T08:42:56.102Z,43.47
2018-11-20T08:45:55.650Z,40.40
2018-11-20T08:48:55.547Z,43.07
2018-11-20T08:51:55.371Z,39.00
2018-11-20T08:54:50.417Z,38.57
2018-11-20T08:57:49.407Z,38.40
2018-11-20T09:00:52.281Z,36.30
2018-11-20T09:06:51.769Z,36.57
2018-11-20T09:09:52.467Z,37.03
2018-11-20T09:12:54.458Z,35.80
2018-11-20T09:15:53.896Z,34.73
2018-11-20T09:18:56.627Z,32.50
2018-11-20T09:22:02.360Z,32.60
2018-11-20T09:25:01.979Z,34.83
2018-11-20T09:28:02.541Z,36.13
2018-11-20T09:31:01.838Z,34.77
2018-11-20T09:34:03.860Z,38.33
2018-11-20T09:37:03.773Z,35.10
2018-11-20T09:40:03.135Z,33.73
2018-11-20T09:43:02.429Z,37.43
2018-11-20T09:46:04.840Z,35.70
2018-11-20T09:49:07.020Z,33.77
2018-11-20T09:52:04.619Z,36.27
2018-11-20T09:55:03.728Z,34.50
2018-11-20T09:58:03.071Z,33.60
2018-11-20T10:01:02.664Z,31.30
2018-11-20T10:04:03.242Z,33.17
2018-11-20T10:07:02.825Z,32.83
2018-11-20T10:10:02.025Z,31.53
2018-11-20T10:13:01.593Z,30.53
2018-11-20T10:16:03.874Z,29.37
2018-11-20T10:22:28.197Z,32.93
2018-11-20T10:25:27.344Z,31.73
2018-11-20T10:28:28.391Z,32.87
2018-11-20T10:31:27.976Z,30.20
2018-11-20T10:34:28.233Z,31.17
2018-11-20T10:37:27.429Z,30.23
2018-11-20T10:40:27.477Z,30.60
2018-11-20T10:43:25.150Z,28.47
2018-11-20T10:46:24.446Z,26.37
2018-11-20T10:49:24.012Z,29.80
2018-11-20T10:52:25.941Z,28.57
2018-11-20T10:55:28.611Z,28.00
2018-11-20T10:58:28.325Z,28.77
2018-11-20T11:01:27.988Z,28.80
2018-11-20T11:04:25.780Z,27.73
2018-11-20T11:07:25.068Z,29.17
2018-11-20T11:10:20.246Z,26.97
2018-11-20T11:13:19.342Z,29.07
2018-11-20T11:16:18.518Z,32.37
2018-11-20T11:19:18.392Z,28.27
2018-11-20T11:22:07.749Z,26.90
2018-11-20T11:28:29.254Z,27.63
2018-11-20T11:31:29.321Z,27.27
2018-11-20T11:34:30.705Z,27.60
2018-11-20T11:37:31.706Z,27.83
2018-11-20T11:40:31.768Z,31.43
2018-11-20T11:46:54.233Z,28.90
2018-11-20T11:49:54.340Z,27.80
2018-11-20T11:52:52.726Z,25.63
2018-11-20T11:59:18.485Z,27.80
2018-11-20T12:05:16.103Z,26.30
2018-11-20T12:08:07.625Z,26.73
2018-11-20T12:11:13.658Z,26.10
2018-11-20T12:17:39.353Z,29.87
2018-11-20T12:24:02.631Z,35.73
2018-11-20T12:27:04.488Z,43.50
2018-11-20T12:33:29.559Z,26.10
2018-11-20T12:36:32.821Z,29.63
2018-11-20T12:42:41.000Z,26.77
2018-11-20T12:45:40.572Z,27.20
2018-11-20T12:48:40.377Z,27.03
2018-11-20T12:51:46.367Z,26.77
2018-11-20T12:54:43.497Z,26.57
2018-11-20T12:57:43.264Z,24.87
2018-11-20T13:00:39.446Z,26.57
2018-11-20T13:03:38.730Z,26.27
2018-11-20T13:06:41.514Z,26.00
2018-11-20T13:09:21.926Z,25.03
2018-11-20T13:12:21.336Z,25.63
2018-11-20T13:15:20.973Z,25.97
2018-11-20T13:18:23.071Z,26.80
2018-11-20T13:21:24.038Z,27.40
2018-11-20T13:24:13.617Z,25.47
2018-11-20T13:27:11.725Z,24.87
2018-11-20T13:30:12.227Z,24.93
2018-11-20T13:33:15.893Z,25.23
2018-11-20T13:36:15.799Z,24.13
2018-11-20T13:39:16.077Z,25.07
2018-11-20T13:42:18.137Z,25.27
2018-11-20T13:45:18.603Z,22.80
2018-11-20T13:51:25.811Z,25.30
2018-11-20T13:54:31.940Z,22.33
2018-11-20T13:57:31.094Z,21.73
2018-11-20T14:00:33.523Z,23.17
2018-11-20T14:03:42.776Z,23.43
2018-11-20T14:06:36.640Z,25.20
2018-11-20T14:09:39.125Z,25.27
2018-11-20T14:12:39.695Z,24.07
2018-11-20T14:15:45.229Z,24.27
2018-11-20T14:18:50.470Z,24.17
2018-11-20T14:21:50.397Z,27.53
2018-11-20T14:24:55.407Z,27.90
2018-11-20T14:27:49.064Z,25.93
2018-11-20T14:30:50.704Z,26.17
2018-11-20T14:33:31.324Z,24.27
2018-11-20T14:36:30.699Z,28.60
2018-11-20T14:39:30.401Z,25.23
2018-11-20T14:42:25.976Z,25.60
2018-11-20T14:45:28.273Z,27.67
2018-11-20T14:48:20.682Z,26.43
2018-11-20T14:51:23.055Z,25.67
2018-11-20T14:54:29.049Z,27.13
2018-11-20T14:57:18.938Z,26.10
2018-11-20T15:00:18.300Z,27.70
2018-11-20T15:03:23.813Z,27.10
2018-11-20T15:06:23.077Z,28.10
2018-11-20T15:09:22.888Z,26.27
2018-11-20T15:12:28.218Z,28.00
2018-11-20T15:15:28.128Z,33.13
2018-11-20T15:18:27.685Z,34.27
2018-11-20T15:21:28.419Z,35.67
2018-11-20T15:24:30.827Z,34.60
2018-11-20T15:27:49.856Z,36.57
2018-11-20T15:30:52.601Z,33.97
2018-11-20T15:34:12.263Z,34.63
2018-11-20T15:37:11.337Z,40.00
2018-11-20T15:40:14.202Z,35.93
2018-11-20T15:43:13.740Z,36.87
2018-11-20T15:46:13.324Z,31.73
2018-11-20T15:49:14.914Z,32.77
2018-11-20T15:52:16.769Z,29.73
2018-11-20T15:55:13.148Z,28.23
2018-11-20T15:58:34.080Z,30.57
2018-11-20T16:01:34.711Z,29.10
2018-11-20T16:04:33.849Z,29.43
2018-11-20T16:07:28.074Z,32.13
2018-11-20T16:10:29.002Z,32.87
2018-11-20T16:13:28.558Z,29.90
2018-11-20T16:16:27.845Z,33.70
2018-11-20T16:19:30.546Z,34.77
2018-11-20T16:22:30.949Z,34.93
2018-11-20T16:25:30.551Z,30.47
2018-11-20T16:28:32.721Z,31.20
2018-11-20T16:31:31.840Z,33.03
2018-11-20T16:34:34.957Z,33.27
2018-11-20T16:37:34.563Z,30.37
2018-11-20T16:40:40.500Z,31.57
2018-11-20T16:43:40.161Z,32.83
2018-11-20T16:46:42.345Z,33.30
2018-11-20T16:49:47.685Z,30.73
2018-11-20T16:52:47.496Z,35.40
2018-11-20T16:55:47.496Z,33.97
2018-11-20T16:58:53.546Z,33.63
2018-11-20T17:01:53.487Z,33.33
2018-11-20T17:04:52.527Z,32.10
2018-11-20T17:07:56.168Z,33.50
2018-11-20T17:10:52.152Z,33.30
2018-11-20T17:13:54.891Z,31.93
2018-11-20T17:16:57.811Z,31.47
2018-11-20T17:19:57.419Z,31.47
2018-11-20T17:22:57.795Z,37.00
2018-11-20T17:25:59.709Z,50.07
2018-11-20T17:29:01.901Z,42.63
2018-11-20T17:32:03.464Z,57.23
2018-11-20T17:35:04.887Z,45.63
2018-11-20T17:38:06.873Z,39.63
2018-11-20T17:41:31.683Z,37.07
2018-11-20T17:44:53.581Z,33.90
2018-11-20T17:47:52.092Z,37.77
2018-11-20T17:50:51.517Z,36.97
2018-11-20T17:53:51.067Z,38.90
2018-11-20T17:56:56.726Z,41.07
2018-11-20T17:59:53.784Z,38.80
2018-11-20T18:02:52.972Z,41.03
2018-11-20T18:05:52.786Z,39.07
2018-11-20T18:08:53.081Z,39.27
2018-11-20T18:11:55.451Z,39.47
2018-11-20T18:15:01.093Z,39.20
2018-11-20T18:18:22.474Z,36.80
2018-11-20T18:21:21.610Z,35.57
2018-11-20T18:24:23.430Z,37.00
2018-11-20T18:27:22.263Z,37.70
2018-11-20T18:30:25.361Z,38.47
2018-11-20T18:33:24.380Z,38.50
2018-11-20T18:36:25.131Z,37.37
2018-11-20T18:39:25.009Z,43.17
2018-11-20T18:42:21.048Z,43.50
2018-11-20T18:45:19.771Z,41.33
2018-11-20T18:48:19.553Z,41.73
2018-11-20T18:51:20.342Z,37.80
2018-11-20T18:54:23.307Z,37.97
2018-11-20T18:57:24.044Z,58.83
2018-11-20T19:03:42.841Z,58.33
2018-11-20T19:06:45.571Z,56.80
2018-11-20T19:09:44.798Z,51.57
2018-11-20T19:12:45.676Z,60.70
2018-11-20T19:15:47.258Z,53.20
2018-11-20T19:18:37.975Z,46.03
2018-11-20T19:21:59.094Z,46.67
2018-11-20T19:24:58.185Z,43.37
2018-11-20T19:27:57.802Z,47.13
2018-11-20T19:30:52.803Z,59.83
2018-11-20T19:33:55.189Z,59.77
2018-11-20T19:36:55.771Z,59.87
2018-11-20T19:39:59.354Z,46.50
2018-11-20T19:43:04.813Z,42.07
2018-11-20T19:46:05.817Z,42.43
2018-11-20T19:49:25.554Z,44.17
2018-11-20T19:52:26.442Z,39.00
2018-11-20T19:55:27.295Z,38.50
2018-11-20T19:58:27.001Z,37.50
2018-11-20T20:01:26.975Z,40.10
2018-11-20T20:04:26.735Z,38.63
2018-11-20T20:07:22.092Z,35.43
2018-11-20T20:10:21.644Z,41.73
2018-11-20T20:13:21.411Z,40.87
2018-11-20T20:16:14.578Z,44.63
2018-11-20T20:19:15.698Z,51.27
2018-11-20T20:22:15.433Z,49.13
2018-11-20T20:25:17.703Z,48.07
2018-11-20T20:31:22.475Z,55.97
2018-11-20T20:34:14.491Z,55.50
2018-11-20T20:37:16.746Z,52.80
2018-11-20T20:40:22.780Z,48.20
2018-11-20T20:43:21.882Z,48.57
2018-11-20T20:46:22.469Z,48.87
2018-11-20T20:49:25.053Z,48.50
2018-11-20T20:52:27.865Z,47.40
2018-11-20T20:55:27.329Z,46.37
2018-11-20T20:58:27.022Z,50.23
2018-11-20T21:01:27.502Z,47.10
2018-11-20T21:04:32.460Z,44.60
2018-11-20T21:07:31.514Z,50.83
2018-11-20T21:10:33.872Z,50.83
2018-11-20T21:13:36.259Z,46.90
2018-11-20T21:16:35.952Z,46.30
2018-11-20T21:19:35.183Z,47.40
2018-11-20T21:22:40.424Z,43.83
2018-11-20T21:25:39.885Z,43.47
2018-11-20T21:28:39.209Z,44.30
2018-11-20T21:31:38.727Z,43.13
2018-11-20T21:34:27.188Z,39.97
2018-11-20T21:37:26.654Z,43.10
2018-11-20T21:40:29.184Z,43.50
2018-11-20T21:43:31.423Z,45.73
2018-11-20T21:46:29.140Z,50.87
2018-11-20T21:49:34.594Z,51.27
2018-11-20T21:52:40.011Z,69.60
2018-11-20T21:55:32.378Z,49.93
2018-11-20T21:58:31.485Z,48.07
2018-11-20T22:01:11.526Z,46.50
2018-11-20T22:04:11.121Z,42.67
2018-11-20T22:06:59.754Z,42.30
2018-11-20T22:10:05.111Z,45.13
2018-11-20T22:13:07.438Z,42.77
2018-11-20T22:16:07.139Z,45.40
2018-11-20T22:19:06.776Z,43.93
2018-11-20T22:22:05.916Z,42.23
2018-11-20T22:25:05.317Z,43.90
2018-11-20T22:31:29.817Z,42.57
2018-11-20T22:34:48.874Z,48.83
2018-11-20T22:37:54.211Z,45.83
2018-11-20T22:40:53.832Z,48.17
2018-11-20T22:43:47.053Z,47.27
2018-11-20T22:46:49.212Z,48.33
2018-11-20T22:49:49.712Z,45.27
2018-11-20T22:52:48.990Z,48.73
2018-11-20T22:55:48.231Z,48.20
2018-11-20T22:58:47.624Z,47.03
2018-11-20T23:01:50.346Z,43.37
2018-11-20T23:04:50.200Z,45.27
2018-11-20T23:07:50.686Z,48.90
2018-11-20T23:10:31.050Z,46.27
2018-11-20T23:13:10.937Z,45.63
2018-11-20T23:15:50.809Z,47.17
2018-11-20T23:18:31.625Z,47.07
2018-11-20T23:21:12.280Z,46.53
2018-11-20T23:23:52.787Z,48.33
2018-11-20T23:26:33.484Z,45.63
2018-11-20T23:29:14.055Z,47.87
2018-11-20T23:31:53.940Z,45.60
2018-11-20T23:34:34.793Z,44.77
2018-11-20T23:37:15.378Z,46.60
2018-11-20T23:39:55.479Z,46.20
2018-11-20T23:42:36.225Z,44.10
2018-11-20T23:45:16.981Z,44.97
2018-11-20T23:47:57.487Z,45.37
2018-11-20T23:50:37.460Z,41.70
2018-11-20T23:53:17.929Z,48.97
2018-11-20T23:55:57.885Z,45.80
2018-11-20T23:58:38.542Z,47.07
